Wind From: 11-12-2017 04:25 Until: 16:00 warning for: Wind Level: Orange info button

Power and phone distribution networks may be disrupted for relatively long periods., Roofs and chimneys can be damaged. , Tree branches may break. , Vehicles can be deported. , Traffic may be disrupted, particularly on secondary roads in forest areas. Limit your trips. , Limit your speed in highway driving, especially if you drive a vehicle or hitch sensitive to wind. , Do not go for walks in forests or along the coast., In town, be vigilant against possible falling objects., Do not work on roofs and do not touch any electrical line fallen on the ground., Store or secure sensitive objects to wind or likely to be damaged., Always install power generators outside buildings. 


Meteo18 Weather Cam more information Meteo18 Weather Cam


Thunder radar more information blitzortung!


Rain radar more information rain snow radar


Visit our other weather sites:

Template documentation
and downloads

And another site



Weather Underground History page Text

Daily Summary for September 23, 2017 Units:  Both    English   Metric
« Previous Day
Next Day »
Daily Weekly Monthly Yearly Custom
  High: Low: Average:
Temperature: 70.9 °F /  21.6 °C 51.8 °F /  11.0 °C 60.4 °F /  15.8 °C
Dew Point: 56.7 °F /  13.7 °C 50.4 °F /  10.2 °C 53.2 °F /  11.8 °C
Humidity: 95 % 56 % 79 %
Wind Speed: 7 mph /  11.3 km/h - 1.4 mph /  2.2 km/h
Wind Gust: 10 mph /  16.1 km/h - -
Wind:- - ESE
Pressure: 30.3 in /  1024.3 hPa 30.1 in /  1020.5 hPa -
Precipitation: 0 in /  0.0 mm    
Historical Graphs
 
 
Tabular Data for September 23, 2017
Time Temperature Dew Point Pressure Wind Wind Speed Wind Gust Humidity Rainfall Rate (Hourly)
00:02 56.8 °F /  13.8 °C 53.2 °F /  11.8 °C 30.3 in /  1024.3 hPa North 2 mph /  3.2 km/h 7 mph /  11.3 km/h 88 % 0 in /  0.0 mm
00:12 56.1 °F /  13.4 °C 52.9 °F /  11.6 °C 30.3 in /  1024.3 hPa NNE 1 mph /  1.6 km/h 4 mph /  6.4 km/h 89 % 0 in /  0.0 mm
00:17 55.8 °F /  13.2 °C 52.5 °F /  11.4 °C 30.3 in /  1024.3 hPa North 2 mph /  3.2 km/h 3 mph /  4.8 km/h 89 % 0 in /  0.0 mm
00:22 55.8 °F /  13.2 °C 52.9 °F /  11.6 °C 30.3 in /  1024.3 hPa NNE 2 mph /  3.2 km/h 4 mph /  6.4 km/h 90 % 0 in /  0.0 mm
00:27 55.9 °F /  13.3 °C 53.4 °F /  11.9 °C 30.3 in /  1024.3 hPa NNE 2 mph /  3.2 km/h 4 mph /  6.4 km/h 91 % 0 in /  0.0 mm
00:32 56.1 °F /  13.4 °C 53.6 °F /  12.0 °C 30.3 in /  1024.3 hPa NNE 2 mph /  3.2 km/h 4 mph /  6.4 km/h 91 % 0 in /  0.0 mm
00:37 56.3 °F /  13.5 °C 53.4 °F /  11.9 °C 30.3 in /  1024.3 hPa NNE 2 mph /  3.2 km/h 4 mph /  6.4 km/h 90 % 0 in /  0.0 mm
00:42 56.1 °F /  13.4 °C 53.2 °F /  11.8 °C 30.2 in /  1023.9 hPa NNE 1 mph /  1.6 km/h 5 mph /  8.0 km/h 90 % 0 in /  0.0 mm
00:47 55.9 °F /  13.3 °C 53.1 °F /  11.7 °C 30.2 in /  1023.9 hPa North 1 mph /  1.6 km/h 5 mph /  8.0 km/h 90 % 0 in /  0.0 mm
00:52 55.9 °F /  13.3 °C 53.1 °F /  11.7 °C 30.2 in /  1023.9 hPa NNW 1 mph /  1.6 km/h 5 mph /  8.0 km/h 90 % 0 in /  0.0 mm
00:57 55.8 °F /  13.2 °C 53.2 °F /  11.8 °C 30.2 in /  1023.9 hPa NNW 2 mph /  3.2 km/h 4 mph /  6.4 km/h 91 % 0 in /  0.0 mm
01:02 55.9 °F /  13.3 °C 53.4 °F /  11.9 °C 30.2 in /  1023.9 hPa NW 2 mph /  3.2 km/h 4 mph /  6.4 km/h 91 % 0 in /  0.0 mm
01:12 55.9 °F /  13.3 °C 53.4 °F /  11.9 °C 30.2 in /  1023.9 hPa North 3 mph /  4.8 km/h 4 mph /  6.4 km/h 91 % 0 in /  0.0 mm
01:17 55.9 °F /  13.3 °C 53.4 °F /  11.9 °C 30.2 in /  1023.9 hPa NNW 1 mph /  1.6 km/h 5 mph /  8.0 km/h 91 % 0 in /  0.0 mm
01:22 55.9 °F /  13.3 °C 53.4 °F /  11.9 °C 30.2 in /  1023.9 hPa North 3 mph /  4.8 km/h 5 mph /  8.0 km/h 91 % 0 in /  0.0 mm
01:32 55.9 °F /  13.3 °C 53.4 °F /  11.9 °C 30.2 in /  1023.9 hPa NNE 1 mph /  1.6 km/h 5 mph /  8.0 km/h 91 % 0 in /  0.0 mm
01:42 55.6 °F /  13.1 °C 53.1 °F /  11.7 °C 30.2 in /  1023.9 hPa North 1 mph /  1.6 km/h 5 mph /  8.0 km/h 91 % 0 in /  0.0 mm
01:47 55.2 °F /  12.9 °C 52.3 °F /  11.3 °C 30.2 in /  1023.9 hPa NNE 1 mph /  1.6 km/h 4 mph /  6.4 km/h 90 % 0 in /  0.0 mm
01:52 54.9 °F /  12.7 °C 52.3 °F /  11.3 °C 30.2 in /  1023.9 hPa Calm   4 mph /  6.4 km/h 91 % 0 in /  0.0 mm
02:02 54.7 °F /  12.6 °C 52.3 °F /  11.3 °C 30.3 in /  1024.3 hPa Calm   2 mph /  3.2 km/h 92 % 0 in /  0.0 mm
02:12 54.5 °F /  12.5 °C 52.2 °F /  11.2 °C 30.2 in /  1023.9 hPa Calm   2 mph /  3.2 km/h 92 % 0 in /  0.0 mm
02:17 54.3 °F /  12.4 °C 52 °F /  11.1 °C 30.2 in /  1023.9 hPa NW 1 mph /  1.6 km/h 2 mph /  3.2 km/h 92 % 0 in /  0.0 mm
02:22 54.3 °F /  12.4 °C 52.3 °F /  11.3 °C 30.2 in /  1023.9 hPa NW 2 mph /  3.2 km/h 2 mph /  3.2 km/h 93 % 0 in /  0.0 mm
02:32 54.7 °F /  12.6 °C 52.7 °F /  11.5 °C 30.2 in /  1023.9 hPa NNW 1 mph /  1.6 km/h 3 mph /  4.8 km/h 93 % 0 in /  0.0 mm
02:37 54.7 °F /  12.6 °C 52.3 °F /  11.3 °C 30.2 in /  1023.9 hPa Calm   4 mph /  6.4 km/h 92 % 0 in /  0.0 mm
02:42 54.5 °F /  12.5 °C 52.2 °F /  11.2 °C 30.2 in /  1023.9 hPa Calm   4 mph /  6.4 km/h 92 % 0 in /  0.0 mm
02:52 54.1 °F /  12.3 °C 51.8 °F /  11.0 °C 30.2 in /  1023.9 hPa Calm   2 mph /  3.2 km/h 92 % 0 in /  0.0 mm
02:57 53.8 °F /  12.1 °C 51.4 °F /  10.8 °C 30.2 in /  1023.9 hPa WNW 1 mph /  1.6 km/h 2 mph /  3.2 km/h 92 % 0 in /  0.0 mm
03:02 53.6 °F /  12.0 °C 51.6 °F /  10.9 °C 30.2 in /  1023.9 hPa Calm   2 mph /  3.2 km/h 93 % 0 in /  0.0 mm
03:12 53.8 °F /  12.1 °C 51.8 °F /  11.0 °C 30.2 in /  1023.9 hPa Calm   1 mph /  1.6 km/h 93 % 0 in /  0.0 mm
03:17 53.8 °F /  12.1 °C 51.8 °F /  11.0 °C 30.2 in /  1023.9 hPa Calm     93 % 0 in /  0.0 mm
03:22 53.2 °F /  11.8 °C 51.3 °F /  10.7 °C 30.2 in /  1023.6 hPa Calm     93 % 0 in /  0.0 mm
03:32 53.4 °F /  11.9 °C 51.4 °F /  10.8 °C 30.2 in /  1023.9 hPa Calm     93 % 0 in /  0.0 mm
03:42 52.3 °F /  11.3 °C 50.4 °F /  10.2 °C 30.2 in /  1023.9 hPa Calm     93 % 0 in /  0.0 mm
03:47 52.7 °F /  11.5 °C 51.3 °F /  10.7 °C 30.2 in /  1023.9 hPa Calm     95 % 0 in /  0.0 mm
03:52 53.1 °F /  11.7 °C 51.6 °F /  10.9 °C 30.2 in /  1023.9 hPa Calm     95 % 0 in /  0.0 mm
04:02 53.1 °F /  11.7 °C 51.6 °F /  10.9 °C 30.2 in /  1023.9 hPa Calm     95 % 0 in /  0.0 mm
04:07 53.1 °F /  11.7 °C 51.6 °F /  10.9 °C 30.2 in /  1023.6 hPa Calm     95 % 0 in /  0.0 mm
04:12 52.9 °F /  11.6 °C 51.3 °F /  10.7 °C 30.2 in /  1023.6 hPa Calm     94 % 0 in /  0.0 mm
04:17 52.7 °F /  11.5 °C 51.1 °F /  10.6 °C 30.2 in /  1023.6 hPa Calm   1 mph /  1.6 km/h 94 % 0 in /  0.0 mm
04:22 52.3 °F /  11.3 °C 50.7 °F /  10.4 °C 30.2 in /  1023.6 hPa Calm   1 mph /  1.6 km/h 94 % 0 in /  0.0 mm
04:32 52 °F /  11.1 °C 50.5 °F /  10.3 °C 30.2 in /  1023.6 hPa Calm   1 mph /  1.6 km/h 95 % 0 in /  0.0 mm
04:42 51.8 °F /  11.0 °C 50.4 °F /  10.2 °C 30.2 in /  1023.6 hPa NNW 1 mph /  1.6 km/h   95 % 0 in /  0.0 mm
04:47 52 °F /  11.1 °C 50.5 °F /  10.3 °C 30.2 in /  1023.2 hPa NNW 1 mph /  1.6 km/h 2 mph /  3.2 km/h 95 % 0 in /  0.0 mm
04:52 52.2 °F /  11.2 °C 50.7 °F /  10.4 °C 30.2 in /  1023.2 hPa NNW 1 mph /  1.6 km/h 2 mph /  3.2 km/h 95 % 0 in /  0.0 mm
04:57 52.2 °F /  11.2 °C 50.7 °F /  10.4 °C 30.2 in /  1023.2 hPa NNW 1 mph /  1.6 km/h 2 mph /  3.2 km/h 95 % 0 in /  0.0 mm
05:02 52.2 °F /  11.2 °C 50.7 °F /  10.4 °C 30.2 in /  1023.2 hPa Calm   2 mph /  3.2 km/h 95 % 0 in /  0.0 mm
05:12 52 °F /  11.1 °C 50.5 °F /  10.3 °C 30.2 in /  1023.2 hPa NW 1 mph /  1.6 km/h 2 mph /  3.2 km/h 95 % 0 in /  0.0 mm
05:17 52.2 °F /  11.2 °C 50.7 °F /  10.4 °C 30.2 in /  1023.2 hPa Calm   2 mph /  3.2 km/h 95 % 0 in /  0.0 mm
05:22 52.3 °F /  11.3 °C 50.9 °F /  10.5 °C 30.2 in /  1023.2 hPa Calm   2 mph /  3.2 km/h 95 % 0 in /  0.0 mm
05:32 52.3 °F /  11.3 °C 50.9 °F /  10.5 °C 30.2 in /  1023.2 hPa NNW 2 mph /  3.2 km/h 2 mph /  3.2 km/h 95 % 0 in /  0.0 mm
05:42 52.5 °F /  11.4 °C 51.1 °F /  10.6 °C 30.2 in /  1023.2 hPa Calm   3 mph /  4.8 km/h 95 % 0 in /  0.0 mm
05:52 52.3 °F /  11.3 °C 50.9 °F /  10.5 °C 30.2 in /  1023.2 hPa Calm   3 mph /  4.8 km/h 95 % 0 in /  0.0 mm
05:57 52.5 °F /  11.4 °C 51.1 °F /  10.6 °C 30.2 in /  1022.9 hPa NW 1 mph /  1.6 km/h 2 mph /  3.2 km/h 95 % 0 in /  0.0 mm
06:02 52.5 °F /  11.4 °C 50.9 °F /  10.5 °C 30.2 in /  1022.9 hPa Calm   2 mph /  3.2 km/h 94 % 0 in /  0.0 mm
06:12 52.3 °F /  11.3 °C 50.7 °F /  10.4 °C 30.2 in /  1022.9 hPa NNW 1 mph /  1.6 km/h 2 mph /  3.2 km/h 94 % 0 in /  0.0 mm
06:17 52.3 °F /  11.3 °C 50.7 °F /  10.4 °C 30.2 in /  1022.9 hPa NW 1 mph /  1.6 km/h 2 mph /  3.2 km/h 94 % 0 in /  0.0 mm
06:22 52.3 °F /  11.3 °C 50.7 °F /  10.4 °C 30.2 in /  1022.9 hPa NNW 1 mph /  1.6 km/h 2 mph /  3.2 km/h 94 % 0 in /  0.0 mm
06:32 52.2 °F /  11.2 °C 50.5 °F /  10.3 °C 30.2 in /  1022.9 hPa NNW 1 mph /  1.6 km/h 3 mph /  4.8 km/h 94 % 0 in /  0.0 mm
06:42 52.2 °F /  11.2 °C 50.5 °F /  10.3 °C 30.2 in /  1022.9 hPa Calm   3 mph /  4.8 km/h 94 % 0 in /  0.0 mm
06:47 52.2 °F /  11.2 °C 50.7 °F /  10.4 °C 30.2 in /  1022.9 hPa Calm   2 mph /  3.2 km/h 95 % 0 in /  0.0 mm
06:52 52.2 °F /  11.2 °C 50.5 °F /  10.3 °C 30.2 in /  1022.9 hPa Calm   2 mph /  3.2 km/h 94 % 0 in /  0.0 mm
07:02 52.3 °F /  11.3 °C 50.9 °F /  10.5 °C 30.2 in /  1022.9 hPa Calm     95 % 0 in /  0.0 mm
07:12 52.3 °F /  11.3 °C 50.7 °F /  10.4 °C 30.2 in /  1022.9 hPa Calm   1 mph /  1.6 km/h 94 % 0 in /  0.0 mm
07:17 52.3 °F /  11.3 °C 50.7 °F /  10.4 °C 30.2 in /  1022.9 hPa Calm   2 mph /  3.2 km/h 94 % 0 in /  0.0 mm
07:22 52.3 °F /  11.3 °C 50.7 °F /  10.4 °C 30.2 in /  1022.9 hPa Calm   2 mph /  3.2 km/h 94 % 0 in /  0.0 mm
07:32 52.3 °F /  11.3 °C 50.7 °F /  10.4 °C 30.2 in /  1022.9 hPa Calm   2 mph /  3.2 km/h 94 % 0 in /  0.0 mm
07:37 52.3 °F /  11.3 °C 50.7 °F /  10.4 °C 30.2 in /  1022.9 hPa Calm   2 mph /  3.2 km/h 94 % 0 in /  0.0 mm
07:42 52.2 °F /  11.2 °C 50.5 °F /  10.3 °C 30.2 in /  1022.9 hPa Calm   2 mph /  3.2 km/h 94 % 0 in /  0.0 mm
07:47 52 °F /  11.1 °C 50.4 °F /  10.2 °C 30.2 in /  1022.9 hPa Calm     94 % 0 in /  0.0 mm
07:52 52 °F /  11.1 °C 50.4 °F /  10.2 °C 30.2 in /  1023.2 hPa Calm     94 % 0 in /  0.0 mm
08:02 52.2 °F /  11.2 °C 50.7 °F /  10.4 °C 30.2 in /  1023.2 hPa Calm     95 % 0 in /  0.0 mm
08:07 52 °F /  11.1 °C 50.4 °F /  10.2 °C 30.2 in /  1023.2 hPa Calm     94 % 0 in /  0.0 mm
08:12 52 °F /  11.1 °C 50.4 °F /  10.2 °C 30.2 in /  1023.2 hPa Calm     94 % 0 in /  0.0 mm
08:22 52.3 °F /  11.3 °C 50.7 °F /  10.4 °C 30.2 in /  1023.2 hPa Calm     94 % 0 in /  0.0 mm
08:32 52.3 °F /  11.3 °C 50.7 °F /  10.4 °C 30.2 in /  1022.9 hPa Calm     94 % 0 in /  0.0 mm
08:37 52.3 °F /  11.3 °C 50.7 °F /  10.4 °C 30.2 in /  1023.2 hPa Calm     94 % 0 in /  0.0 mm
08:42 53.2 °F /  11.8 °C 51.8 °F /  11.0 °C 30.2 in /  1023.2 hPa Calm     95 % 0 in /  0.0 mm
08:52 53.4 °F /  11.9 °C 51.8 °F /  11.0 °C 30.2 in /  1022.9 hPa Calm     94 % 0 in /  0.0 mm
08:57 53.6 °F /  12.0 °C 51.6 °F /  10.9 °C 30.2 in /  1022.9 hPa Calm     93 % 0 in /  0.0 mm
09:02 53.8 °F /  12.1 °C 51.8 °F /  11.0 °C 30.2 in /  1022.9 hPa Calm     93 % 0 in /  0.0 mm
09:12 54.1 °F /  12.3 °C 52.2 °F /  11.2 °C 30.2 in /  1022.9 hPa Calm   2 mph /  3.2 km/h 93 % 0 in /  0.0 mm
09:17 54.3 °F /  12.4 °C 52.3 °F /  11.3 °C 30.2 in /  1023.2 hPa Calm   2 mph /  3.2 km/h 93 % 0 in /  0.0 mm
09:22 54.7 °F /  12.6 °C 52.7 °F /  11.5 °C 30.2 in /  1023.2 hPa NNE 1 mph /  1.6 km/h 2 mph /  3.2 km/h 93 % 0 in /  0.0 mm
09:32 55.4 °F /  13.0 °C 53.1 °F /  11.7 °C 30.2 in /  1023.2 hPa Calm   2 mph /  3.2 km/h 92 % 0 in /  0.0 mm
09:42 56.3 °F /  13.5 °C 54 °F /  12.2 °C 30.2 in /  1023.2 hPa Calm   2 mph /  3.2 km/h 92 % 0 in /  0.0 mm
09:52 56.8 °F /  13.8 °C 54 °F /  12.2 °C 30.2 in /  1023.2 hPa NNE 2 mph /  3.2 km/h 2 mph /  3.2 km/h 90 % 0 in /  0.0 mm
10:02 57.4 °F /  14.1 °C 54.5 °F /  12.5 °C 30.2 in /  1023.2 hPa Calm   4 mph /  6.4 km/h 90 % 0 in /  0.0 mm
10:12 57.9 °F /  14.4 °C 54.7 °F /  12.6 °C 30.2 in /  1023.2 hPa NE 3 mph /  4.8 km/h 4 mph /  6.4 km/h 89 % 0 in /  0.0 mm
10:22 58.3 °F /  14.6 °C 54.7 °F /  12.6 °C 30.2 in /  1023.2 hPa NE 1 mph /  1.6 km/h 5 mph /  8.0 km/h 88 % 0 in /  0.0 mm
10:32 58.5 °F /  14.7 °C 54.7 °F /  12.6 °C 30.2 in /  1023.2 hPa NNE 3 mph /  4.8 km/h 5 mph /  8.0 km/h 87 % 0 in /  0.0 mm
10:37 58.5 °F /  14.7 °C 54.7 °F /  12.6 °C 30.2 in /  1023.2 hPa NE 2 mph /  3.2 km/h 5 mph /  8.0 km/h 87 % 0 in /  0.0 mm
10:42 58.6 °F /  14.8 °C 54.9 °F /  12.7 °C 30.2 in /  1023.2 hPa NE 1 mph /  1.6 km/h 5 mph /  8.0 km/h 87 % 0 in /  0.0 mm
10:47 58.8 °F /  14.9 °C 55 °F /  12.8 °C 30.2 in /  1022.9 hPa NE 2 mph /  3.2 km/h 4 mph /  6.4 km/h 87 % 0 in /  0.0 mm
10:52 59 °F /  15.0 °C 54.9 °F /  12.7 °C 30.2 in /  1022.9 hPa Calm   4 mph /  6.4 km/h 86 % 0 in /  0.0 mm
10:57 59.4 °F /  15.2 °C 55.2 °F /  12.9 °C 30.2 in /  1022.9 hPa East 2 mph /  3.2 km/h 4 mph /  6.4 km/h 86 % 0 in /  0.0 mm
11:02 59.5 °F /  15.3 °C 55 °F /  12.8 °C 30.2 in /  1022.9 hPa NW 1 mph /  1.6 km/h 4 mph /  6.4 km/h 85 % 0 in /  0.0 mm
11:12 60.4 °F /  15.8 °C 55.2 °F /  12.9 °C 30.2 in /  1022.9 hPa NNE 2 mph /  3.2 km/h 5 mph /  8.0 km/h 83 % 0 in /  0.0 mm
11:17 60.6 °F /  15.9 °C 55.4 °F /  13.0 °C 30.2 in /  1023.2 hPa East 4 mph /  6.4 km/h 5 mph /  8.0 km/h 83 % 0 in /  0.0 mm
11:22 61 °F /  16.1 °C 55.4 °F /  13.0 °C 30.2 in /  1023.2 hPa NE 2 mph /  3.2 km/h 5 mph /  8.0 km/h 82 % 0 in /  0.0 mm
11:32 61.5 °F /  16.4 °C 55.2 °F /  12.9 °C 30.2 in /  1023.2 hPa ENE 3 mph /  4.8 km/h 5 mph /  8.0 km/h 80 % 0 in /  0.0 mm
11:42 62.2 °F /  16.8 °C 55.2 °F /  12.9 °C 30.2 in /  1023.2 hPa ENE 2 mph /  3.2 km/h 5 mph /  8.0 km/h 78 % 0 in /  0.0 mm
11:47 62.4 °F /  16.9 °C 55.4 °F /  13.0 °C 30.2 in /  1022.9 hPa East 2 mph /  3.2 km/h 6 mph /  9.7 km/h 78 % 0 in /  0.0 mm
11:52 62.8 °F /  17.1 °C 55.4 °F /  13.0 °C 30.2 in /  1022.9 hPa ENE 5 mph /  8.0 km/h 6 mph /  9.7 km/h 77 % 0 in /  0.0 mm
12:02 63.3 °F /  17.4 °C 56.3 °F /  13.5 °C 30.2 in /  1022.9 hPa ENE 2 mph /  3.2 km/h 6 mph /  9.7 km/h 78 % 0 in /  0.0 mm
12:12 63.9 °F /  17.7 °C 55.4 °F /  13.0 °C 30.2 in /  1022.9 hPa NNE 4 mph /  6.4 km/h 6 mph /  9.7 km/h 74 % 0 in /  0.0 mm
12:17 64.2 °F /  17.9 °C 55.4 °F /  13.0 °C 30.2 in /  1022.9 hPa East 2 mph /  3.2 km/h 6 mph /  9.7 km/h 73 % 0 in /  0.0 mm
12:27 65.1 °F /  18.4 °C 56.7 °F /  13.7 °C 30.2 in /  1022.6 hPa ENE 3 mph /  4.8 km/h 6 mph /  9.7 km/h 74 % 0 in /  0.0 mm
12:32 65.5 °F /  18.6 °C 56.3 °F /  13.5 °C 30.2 in /  1022.6 hPa ENE 5 mph /  8.0 km/h 6 mph /  9.7 km/h 72 % 0 in /  0.0 mm
12:37 65.7 °F /  18.7 °C 55.6 °F /  13.1 °C 30.2 in /  1022.6 hPa ENE 6 mph /  9.7 km/h 9 mph /  14.5 km/h 70 % 0 in /  0.0 mm
12:42 65.8 °F /  18.8 °C 54.5 °F /  12.5 °C 30.2 in /  1022.6 hPa ENE 6 mph /  9.7 km/h 9 mph /  14.5 km/h 67 % 0 in /  0.0 mm
12:47 66.6 °F /  19.2 °C 54.5 °F /  12.5 °C 30.2 in /  1022.6 hPa NE 5 mph /  8.0 km/h 9 mph /  14.5 km/h 65 % 0 in /  0.0 mm
12:52 66.4 °F /  19.1 °C 54.7 °F /  12.6 °C 30.2 in /  1022.6 hPa NE 4 mph /  6.4 km/h 9 mph /  14.5 km/h 66 % 0 in /  0.0 mm
13:02 66.7 °F /  19.3 °C 54.7 °F /  12.6 °C 30.2 in /  1022.2 hPa West 3 mph /  4.8 km/h 9 mph /  14.5 km/h 65 % 0 in /  0.0 mm
13:12 67.5 °F /  19.7 °C 54.9 °F /  12.7 °C 30.2 in /  1022.2 hPa East 4 mph /  6.4 km/h 8 mph /  12.9 km/h 64 % 0 in /  0.0 mm
13:17 67.5 °F /  19.7 °C 53.6 °F /  12.0 °C 30.2 in /  1022.2 hPa NE 1 mph /  1.6 km/h 7 mph /  11.3 km/h 61 % 0 in /  0.0 mm
13:22 67.6 °F /  19.8 °C 54.7 °F /  12.6 °C 30.2 in /  1022.2 hPa East 2 mph /  3.2 km/h 7 mph /  11.3 km/h 63 % 0 in /  0.0 mm
13:32 67.5 °F /  19.7 °C 54 °F /  12.2 °C 30.2 in /  1022.2 hPa ENE 5 mph /  8.0 km/h 8 mph /  12.9 km/h 62 % 0 in /  0.0 mm
13:42 67.3 °F /  19.6 °C 53.8 °F /  12.1 °C 30.2 in /  1022.2 hPa East 1 mph /  1.6 km/h 8 mph /  12.9 km/h 62 % 0 in /  0.0 mm
13:47 67.5 °F /  19.7 °C 54 °F /  12.2 °C 30.2 in /  1022.2 hPa ENE 4 mph /  6.4 km/h 7 mph /  11.3 km/h 62 % 0 in /  0.0 mm
13:52 67.8 °F /  19.9 °C 54.3 °F /  12.4 °C 30.2 in /  1022.2 hPa ENE 1 mph /  1.6 km/h 7 mph /  11.3 km/h 62 % 0 in /  0.0 mm
13:57 68.2 °F /  20.1 °C 54.1 °F /  12.3 °C 30.2 in /  1022.2 hPa ENE 4 mph /  6.4 km/h 5 mph /  8.0 km/h 61 % 0 in /  0.0 mm
14:02 68 °F /  20.0 °C 53.6 °F /  12.0 °C 30.2 in /  1022.2 hPa South 1 mph /  1.6 km/h 5 mph /  8.0 km/h 60 % 0 in /  0.0 mm
14:07 68.5 °F /  20.3 °C 54.1 °F /  12.3 °C 30.2 in /  1022.2 hPa ENE 4 mph /  6.4 km/h 7 mph /  11.3 km/h 60 % 0 in /  0.0 mm
14:12 68.5 °F /  20.3 °C 54.1 °F /  12.3 °C 30.2 in /  1022.2 hPa NE 2 mph /  3.2 km/h 7 mph /  11.3 km/h 60 % 0 in /  0.0 mm
14:17 68.5 °F /  20.3 °C 53.6 °F /  12.0 °C 30.2 in /  1022.2 hPa East 1 mph /  1.6 km/h 6 mph /  9.7 km/h 59 % 0 in /  0.0 mm
14:22 68.5 °F /  20.3 °C 53.6 °F /  12.0 °C 30.2 in /  1022.2 hPa ENE 3 mph /  4.8 km/h 6 mph /  9.7 km/h 59 % 0 in /  0.0 mm
14:32 69.1 °F /  20.6 °C 54.7 °F /  12.6 °C 30.2 in /  1021.9 hPa East 6 mph /  9.7 km/h 8 mph /  12.9 km/h 60 % 0 in /  0.0 mm
14:42 69.4 °F /  20.8 °C 54 °F /  12.2 °C 30.2 in /  1021.9 hPa NNE 4 mph /  6.4 km/h 7 mph /  11.3 km/h 58 % 0 in /  0.0 mm
14:47 69.4 °F /  20.8 °C 54 °F /  12.2 °C 30.2 in /  1021.9 hPa Calm   7 mph /  11.3 km/h 58 % 0 in /  0.0 mm
14:52 70.3 °F /  21.3 °C 54.9 °F /  12.7 °C 30.2 in /  1021.9 hPa East 2 mph /  3.2 km/h 7 mph /  11.3 km/h 58 % 0 in /  0.0 mm
14:57 70 °F /  21.1 °C 54.5 °F /  12.5 °C 30.2 in /  1021.9 hPa NE 2 mph /  3.2 km/h 5 mph /  8.0 km/h 58 % 0 in /  0.0 mm
15:02 69.6 °F /  20.9 °C 53.8 °F /  12.1 °C 30.2 in /  1021.9 hPa ENE 2 mph /  3.2 km/h 5 mph /  8.0 km/h 57 % 0 in /  0.0 mm
15:07 69.8 °F /  21.0 °C 54.3 °F /  12.4 °C 30.2 in /  1021.9 hPa ESE 2 mph /  3.2 km/h 6 mph /  9.7 km/h 58 % 0 in /  0.0 mm
15:12 70.2 °F /  21.2 °C 54.1 °F /  12.3 °C 30.2 in /  1021.6 hPa Calm   6 mph /  9.7 km/h 57 % 0 in /  0.0 mm
15:17 70.7 °F /  21.5 °C 54.7 °F /  12.6 °C 30.2 in /  1021.6 hPa NNE 4 mph /  6.4 km/h 5 mph /  8.0 km/h 57 % 0 in /  0.0 mm
15:22 70.3 °F /  21.3 °C 54.9 °F /  12.7 °C 30.2 in /  1021.6 hPa NE 1 mph /  1.6 km/h 5 mph /  8.0 km/h 58 % 0 in /  0.0 mm
15:32 69.8 °F /  21.0 °C 54 °F /  12.2 °C 30.2 in /  1021.6 hPa East 2 mph /  3.2 km/h 6 mph /  9.7 km/h 57 % 0 in /  0.0 mm
15:42 69.6 °F /  20.9 °C 54.1 °F /  12.3 °C 30.2 in /  1021.2 hPa Calm   8 mph /  12.9 km/h 58 % 0 in /  0.0 mm
15:52 70.3 °F /  21.3 °C 55.4 °F /  13.0 °C 30.2 in /  1021.2 hPa NE 4 mph /  6.4 km/h 5 mph /  8.0 km/h 59 % 0 in /  0.0 mm
15:57 70.5 °F /  21.4 °C 55 °F /  12.8 °C 30.2 in /  1021.2 hPa Calm   6 mph /  9.7 km/h 58 % 0 in /  0.0 mm
16:02 70.5 °F /  21.4 °C 54.5 °F /  12.5 °C 30.2 in /  1021.2 hPa Calm   6 mph /  9.7 km/h 57 % 0 in /  0.0 mm
16:12 70.9 °F /  21.6 °C 54.3 °F /  12.4 °C 30.2 in /  1021.2 hPa NNE 4 mph /  6.4 km/h 5 mph /  8.0 km/h 56 % 0 in /  0.0 mm
16:22 70.7 °F /  21.5 °C 54.7 °F /  12.6 °C 30.2 in /  1020.9 hPa East 2 mph /  3.2 km/h 5 mph /  8.0 km/h 57 % 0 in /  0.0 mm
16:32 70.3 °F /  21.3 °C 54.9 °F /  12.7 °C 30.2 in /  1020.9 hPa NE 7 mph /  11.3 km/h 7 mph /  11.3 km/h 58 % 0 in /  0.0 mm
16:37 70 °F /  21.1 °C 54 °F /  12.2 °C 30.2 in /  1020.9 hPa NE 4 mph /  6.4 km/h 10 mph /  16.1 km/h 57 % 0 in /  0.0 mm
16:42 69.6 °F /  20.9 °C 54.7 °F /  12.6 °C 30.2 in /  1020.9 hPa East 2 mph /  3.2 km/h 10 mph /  16.1 km/h 59 % 0 in /  0.0 mm
16:47 69.8 °F /  21.0 °C 54.3 °F /  12.4 °C 30.2 in /  1020.9 hPa ENE 3 mph /  4.8 km/h 10 mph /  16.1 km/h 58 % 0 in /  0.0 mm
16:52 69.8 °F /  21.0 °C 54.3 °F /  12.4 °C 30.2 in /  1020.9 hPa NNE 4 mph /  6.4 km/h 10 mph /  16.1 km/h 58 % 0 in /  0.0 mm
17:02 70.3 °F /  21.3 °C 54.9 °F /  12.7 °C 30.2 in /  1020.9 hPa Calm   6 mph /  9.7 km/h 58 % 0 in /  0.0 mm
17:07 70.3 °F /  21.3 °C 54.3 °F /  12.4 °C 30.2 in /  1020.9 hPa ENE 3 mph /  4.8 km/h 7 mph /  11.3 km/h 57 % 0 in /  0.0 mm
17:12 70.3 °F /  21.3 °C 54.9 °F /  12.7 °C 30.2 in /  1020.9 hPa NE 3 mph /  4.8 km/h 7 mph /  11.3 km/h 58 % 0 in /  0.0 mm
17:17 70.5 °F /  21.4 °C 55 °F /  12.8 °C 30.2 in /  1020.9 hPa NE 4 mph /  6.4 km/h 7 mph /  11.3 km/h 58 % 0 in /  0.0 mm
17:22 70.3 °F /  21.3 °C 54 °F /  12.2 °C 30.2 in /  1020.9 hPa Calm   7 mph /  11.3 km/h 56 % 0 in /  0.0 mm
17:32 70.7 °F /  21.5 °C 54.7 °F /  12.6 °C 30.2 in /  1020.9 hPa Calm   6 mph /  9.7 km/h 57 % 0 in /  0.0 mm
17:37 70.7 °F /  21.5 °C 54.3 °F /  12.4 °C 30.2 in /  1020.9 hPa NNE 3 mph /  4.8 km/h 8 mph /  12.9 km/h 56 % 0 in /  0.0 mm
17:42 70.3 °F /  21.3 °C 54 °F /  12.2 °C 30.1 in /  1020.5 hPa NNE 2 mph /  3.2 km/h 8 mph /  12.9 km/h 56 % 0 in /  0.0 mm
17:47 70.5 °F /  21.4 °C 54.5 °F /  12.5 °C 30.1 in /  1020.5 hPa NE 2 mph /  3.2 km/h 8 mph /  12.9 km/h 57 % 0 in /  0.0 mm
17:52 70.5 °F /  21.4 °C 54.5 °F /  12.5 °C 30.1 in /  1020.5 hPa North 3 mph /  4.8 km/h 8 mph /  12.9 km/h 57 % 0 in /  0.0 mm
17:57 70.5 °F /  21.4 °C 54.5 °F /  12.5 °C 30.1 in /  1020.5 hPa ENE 1 mph /  1.6 km/h 7 mph /  11.3 km/h 57 % 0 in /  0.0 mm
18:02 70.7 °F /  21.5 °C 54.7 °F /  12.6 °C 30.1 in /  1020.5 hPa Calm   7 mph /  11.3 km/h 57 % 0 in /  0.0 mm
18:12 70.5 °F /  21.4 °C 54.1 °F /  12.3 °C 30.1 in /  1020.5 hPa Calm   5 mph /  8.0 km/h 56 % 0 in /  0.0 mm
18:22 70.3 °F /  21.3 °C 54.3 °F /  12.4 °C 30.1 in /  1020.5 hPa Calm   6 mph /  9.7 km/h 57 % 0 in /  0.0 mm
18:32 70 °F /  21.1 °C 54 °F /  12.2 °C 30.1 in /  1020.5 hPa NE 2 mph /  3.2 km/h 6 mph /  9.7 km/h 57 % 0 in /  0.0 mm
18:42 69.8 °F /  21.0 °C 54.3 °F /  12.4 °C 30.1 in /  1020.5 hPa NNW 1 mph /  1.6 km/h 6 mph /  9.7 km/h 58 % 0 in /  0.0 mm
18:52 69.6 °F /  20.9 °C 54.7 °F /  12.6 °C 30.1 in /  1020.5 hPa ENE 1 mph /  1.6 km/h 5 mph /  8.0 km/h 59 % 0 in /  0.0 mm
19:02 68.9 °F /  20.5 °C 54.5 °F /  12.5 °C 30.1 in /  1020.5 hPa NE 4 mph /  6.4 km/h 4 mph /  6.4 km/h 60 % 0 in /  0.0 mm
19:07 68.5 °F /  20.3 °C 54.5 °F /  12.5 °C 30.1 in /  1020.5 hPa NE 1 mph /  1.6 km/h 5 mph /  8.0 km/h 61 % 0 in /  0.0 mm
19:12 68.2 °F /  20.1 °C 54.1 °F /  12.3 °C 30.1 in /  1020.5 hPa NNE 2 mph /  3.2 km/h 5 mph /  8.0 km/h 61 % 0 in /  0.0 mm
19:17 67.8 °F /  19.9 °C 54 °F /  12.2 °C 30.1 in /  1020.5 hPa NE 3 mph /  4.8 km/h 5 mph /  8.0 km/h 61 % 0 in /  0.0 mm
19:22 67.6 °F /  19.8 °C 53.8 °F /  12.1 °C 30.1 in /  1020.5 hPa NE 4 mph /  6.4 km/h 5 mph /  8.0 km/h 61 % 0 in /  0.0 mm
19:27 67.3 °F /  19.6 °C 53.8 °F /  12.1 °C 30.1 in /  1020.5 hPa NE 2 mph /  3.2 km/h 5 mph /  8.0 km/h 62 % 0 in /  0.0 mm
19:32 66.9 °F /  19.4 °C 54.3 °F /  12.4 °C 30.1 in /  1020.5 hPa NE 1 mph /  1.6 km/h 5 mph /  8.0 km/h 64 % 0 in /  0.0 mm
19:42 65.8 °F /  18.8 °C 54.5 °F /  12.5 °C 30.1 in /  1020.5 hPa Calm   5 mph /  8.0 km/h 67 % 0 in /  0.0 mm
19:47 65.1 °F /  18.4 °C 54.3 °F /  12.4 °C 30.1 in /  1020.5 hPa Calm   5 mph /  8.0 km/h 68 % 0 in /  0.0 mm
19:52 64.8 °F /  18.2 °C 54.3 °F /  12.4 °C 30.1 in /  1020.5 hPa NNE 1 mph /  1.6 km/h 5 mph /  8.0 km/h 69 % 0 in /  0.0 mm
19:57 64.2 °F /  17.9 °C 54.3 °F /  12.4 °C 30.1 in /  1020.5 hPa Calm   2 mph /  3.2 km/h 70 % 0 in /  0.0 mm
20:02 63.9 °F /  17.7 °C 54.3 °F /  12.4 °C 30.1 in /  1020.5 hPa NNE 1 mph /  1.6 km/h 2 mph /  3.2 km/h 71 % 0 in /  0.0 mm
20:12 63 °F /  17.2 °C 54.1 °F /  12.3 °C 30.1 in /  1020.5 hPa NNE 1 mph /  1.6 km/h 2 mph /  3.2 km/h 73 % 0 in /  0.0 mm
20:17 62.8 °F /  17.1 °C 54.3 °F /  12.4 °C 30.2 in /  1020.9 hPa NNE 2 mph /  3.2 km/h 3 mph /  4.8 km/h 74 % 0 in /  0.0 mm
20:22 62.4 °F /  16.9 °C 54 °F /  12.2 °C 30.2 in /  1020.9 hPa NNE 2 mph /  3.2 km/h 3 mph /  4.8 km/h 74 % 0 in /  0.0 mm
20:27 62.2 °F /  16.8 °C 53.8 °F /  12.1 °C 30.2 in /  1020.9 hPa Calm   2 mph /  3.2 km/h 74 % 0 in /  0.0 mm
20:32 62.1 °F /  16.7 °C 53.6 °F /  12.0 °C 30.2 in /  1020.9 hPa Calm   2 mph /  3.2 km/h 74 % 0 in /  0.0 mm
20:37 61.9 °F /  16.6 °C 53.8 °F /  12.1 °C 30.2 in /  1020.9 hPa Calm   2 mph /  3.2 km/h 75 % 0 in /  0.0 mm
20:42 61.5 °F /  16.4 °C 53.6 °F /  12.0 °C 30.2 in /  1020.9 hPa Calm   2 mph /  3.2 km/h 75 % 0 in /  0.0 mm
20:47 61.3 °F /  16.3 °C 53.8 °F /  12.1 °C 30.2 in /  1020.9 hPa Calm   1 mph /  1.6 km/h 76 % 0 in /  0.0 mm
20:52 61.2 °F /  16.2 °C 53.6 °F /  12.0 °C 30.2 in /  1020.9 hPa Calm   1 mph /  1.6 km/h 76 % 0 in /  0.0 mm
20:57 61 °F /  16.1 °C 53.8 °F /  12.1 °C 30.2 in /  1020.9 hPa Calm   1 mph /  1.6 km/h 77 % 0 in /  0.0 mm
21:02 60.6 °F /  15.9 °C 53.8 °F /  12.1 °C 30.2 in /  1020.9 hPa Calm   1 mph /  1.6 km/h 78 % 0 in /  0.0 mm
21:12 60.3 °F /  15.7 °C 53.8 °F /  12.1 °C 30.2 in /  1020.9 hPa NNE 1 mph /  1.6 km/h 2 mph /  3.2 km/h 79 % 0 in /  0.0 mm
21:22 60.4 °F /  15.8 °C 53.6 °F /  12.0 °C 30.2 in /  1020.9 hPa NNW 2 mph /  3.2 km/h 3 mph /  4.8 km/h 78 % 0 in /  0.0 mm
21:32 60.4 °F /  15.8 °C 53.6 °F /  12.0 °C 30.2 in /  1020.9 hPa North 1 mph /  1.6 km/h 3 mph /  4.8 km/h 78 % 0 in /  0.0 mm
21:37 60.4 °F /  15.8 °C 53.6 °F /  12.0 °C 30.2 in /  1020.9 hPa North 3 mph /  4.8 km/h 3 mph /  4.8 km/h 78 % 0 in /  0.0 mm
21:42 60.4 °F /  15.8 °C 53.2 °F /  11.8 °C 30.2 in /  1020.9 hPa NE 2 mph /  3.2 km/h 2 mph /  3.2 km/h 77 % 0 in /  0.0 mm
21:52 60.3 °F /  15.7 °C 53.1 °F /  11.7 °C 30.2 in /  1020.9 hPa NNW 2 mph /  3.2 km/h 4 mph /  6.4 km/h 77 % 0 in /  0.0 mm
21:57 60.3 °F /  15.7 °C 53.1 °F /  11.7 °C 30.2 in /  1020.9 hPa NE 2 mph /  3.2 km/h 5 mph /  8.0 km/h 77 % 0 in /  0.0 mm
22:07 60.3 °F /  15.7 °C 53.1 °F /  11.7 °C 30.2 in /  1020.9 hPa NE 1 mph /  1.6 km/h 5 mph /  8.0 km/h 77 % 0 in /  0.0 mm
22:12 60.3 °F /  15.7 °C 53.1 °F /  11.7 °C 30.2 in /  1021.2 hPa NE 3 mph /  4.8 km/h 5 mph /  8.0 km/h 77 % 0 in /  0.0 mm
22:17 60.3 °F /  15.7 °C 52.7 °F /  11.5 °C 30.2 in /  1021.2 hPa NNE 4 mph /  6.4 km/h 6 mph /  9.7 km/h 76 % 0 in /  0.0 mm
22:22 60.3 °F /  15.7 °C 52.7 °F /  11.5 °C 30.2 in /  1020.9 hPa NE 1 mph /  1.6 km/h 6 mph /  9.7 km/h 76 % 0 in /  0.0 mm
22:27 60.1 °F /  15.6 °C 52.9 °F /  11.6 °C 30.2 in /  1020.9 hPa NE 1 mph /  1.6 km/h 6 mph /  9.7 km/h 77 % 0 in /  0.0 mm
22:32 60.1 °F /  15.6 °C 52.9 °F /  11.6 °C 30.2 in /  1020.9 hPa Calm   6 mph /  9.7 km/h 77 % 0 in /  0.0 mm
22:42 59.7 °F /  15.4 °C 52.9 °F /  11.6 °C 30.2 in /  1020.9 hPa NE 1 mph /  1.6 km/h 4 mph /  6.4 km/h 78 % 0 in /  0.0 mm
22:52 59.5 °F /  15.3 °C 52.7 °F /  11.5 °C 30.2 in /  1020.9 hPa Calm   5 mph /  8.0 km/h 78 % 0 in /  0.0 mm
22:57 59.4 °F /  15.2 °C 52.9 °F /  11.6 °C 30.2 in /  1020.9 hPa NNE 1 mph /  1.6 km/h 5 mph /  8.0 km/h 79 % 0 in /  0.0 mm
23:02 59.2 °F /  15.1 °C 52.7 °F /  11.5 °C 30.2 in /  1021.2 hPa NNE 4 mph /  6.4 km/h 5 mph /  8.0 km/h 79 % 0 in /  0.0 mm
23:07 59 °F /  15.0 °C 52.5 °F /  11.4 °C 30.2 in /  1021.2 hPa NW 1 mph /  1.6 km/h 4 mph /  6.4 km/h 79 % 0 in /  0.0 mm
23:12 58.8 °F /  14.9 °C 52.7 °F /  11.5 °C 30.2 in /  1021.2 hPa North 1 mph /  1.6 km/h 4 mph /  6.4 km/h 80 % 0 in /  0.0 mm
23:17 58.6 °F /  14.8 °C 52.5 °F /  11.4 °C 30.2 in /  1021.2 hPa Calm   4 mph /  6.4 km/h 80 % 0 in /  0.0 mm
23:22 58.6 °F /  14.8 °C 52.9 °F /  11.6 °C 30.2 in /  1021.2 hPa NNE 1 mph /  1.6 km/h 4 mph /  6.4 km/h 81 % 0 in /  0.0 mm
23:27 58.3 °F /  14.6 °C 52.5 °F /  11.4 °C 30.2 in /  1021.2 hPa NNW 2 mph /  3.2 km/h 3 mph /  4.8 km/h 81 % 0 in /  0.0 mm
23:32 57.9 °F /  14.4 °C 52.5 °F /  11.4 °C 30.2 in /  1021.2 hPa Calm   3 mph /  4.8 km/h 82 % 0 in /  0.0 mm
23:37 57.9 °F /  14.4 °C 52.7 °F /  11.5 °C 30.2 in /  1021.2 hPa Calm   3 mph /  4.8 km/h 83 % 0 in /  0.0 mm
23:42 57.7 °F /  14.3 °C 52.7 °F /  11.5 °C 30.2 in /  1021.2 hPa NNE 2 mph /  3.2 km/h 3 mph /  4.8 km/h 83 % 0 in /  0.0 mm
23:47 57.9 °F /  14.4 °C 52.7 °F /  11.5 °C 30.2 in /  1021.2 hPa Calm   3 mph /  4.8 km/h 83 % 0 in /  0.0 mm
23:52 57.7 °F /  14.3 °C 52.7 °F /  11.5 °C 30.2 in /  1021.2 hPa Calm   3 mph /  4.8 km/h 83 % 0 in /  0.0 mm
23:57 57.7 °F /  14.3 °C 52.7 °F /  11.5 °C 30.2 in /  1021.2 hPa NNE 1 mph /  1.6 km/h 3 mph /  4.8 km/h 83 % 0 in /  0.0 mm
Meteo18
Compliments of Weather Underground - 4 mb

Script developed by  Jim McMurry - jmcmurry@mwt.net Adapted for the template by  Wim van der Kuil - Leuven-Template.eu

You find our weather info also at:

European Weather Network

Weather Underground

Equipment we use:

Weather-station
Davis Vue

Weather-program
Meteohub

Weather-server
Raspberry PI 2 B+

Provider
1 and 1

Davis Vue

Meteohub

Raspberry PI 2 B+

1 and 1